sensor_id;sensor_type;location;lat;lon;timestamp;temperature;humidity
15343;DHT22;7771;48.478;8.936;2023-12-07T00:00:05;3.60;99.90
15343;DHT22;7771;48.478;8.936;2023-12-07T00:02:32;3.60;99.90
15343;DHT22;7771;48.478;8.936;2023-12-07T00:07:28;3.70;99.90
15343;DHT22;7771;48.478;8.936;2023-12-07T00:09:54;3.70;99.90
15343;DHT22;7771;48.478;8.936;2023-12-07T00:12:22;3.60;99.90
15343;DHT22;7771;48.478;8.936;2023-12-07T00:14:48;3.50;99.90
15343;DHT22;7771;48.478;8.936;2023-12-07T00:17:20;3.40;99.90
15343;DHT22;7771;48.478;8.936;2023-12-07T00:19:46;3.50;99.90
15343;DHT22;7771;48.478;8.936;2023-12-07T00:22:14;3.50;99.90
15343;DHT22;7771;48.478;8.936;2023-12-07T00:24:40;3.50;99.90
15343;DHT22;7771;48.478;8.936;2023-12-07T00:27:08;3.40;99.90
15343;DHT22;7771;48.478;8.936;2023-12-07T00:29:36;3.40;99.90
15343;DHT22;7771;48.478;8.936;2023-12-07T00:32:02;3.50;99.90
15343;DHT22;7771;48.478;8.936;2023-12-07T00:34:30;3.50;99.90
15343;DHT22;7771;48.478;8.936;2023-12-07T00:36:57;3.50;99.90
15343;DHT22;7771;48.478;8.936;2023-12-07T00:39:25;3.50;99.90
15343;DHT22;7771;48.478;8.936;2023-12-07T00:41:52;3.50;99.90
15343;DHT22;7771;48.478;8.936;2023-12-07T00:44:19;3.50;99.90
15343;DHT22;7771;48.478;8.936;2023-12-07T00:46:45;3.50;99.90
15343;DHT22;7771;48.478;8.936;2023-12-07T00:49:13;3.50;99.90
15343;DHT22;7771;48.478;8.936;2023-12-07T00:51:40;3.50;99.90
15343;DHT22;7771;48.478;8.936;2023-12-07T00:54:07;3.50;99.90
15343;DHT22;7771;48.478;8.936;2023-12-07T00:56:34;3.60;99.90
15343;DHT22;7771;48.478;8.936;2023-12-07T00:59:01;3.50;99.90
15343;DHT22;7771;48.478;8.936;2023-12-07T01:01:27;3.60;99.90
15343;DHT22;7771;48.478;8.936;2023-12-07T01:03:55;3.60;99.90
15343;DHT22;7771;48.478;8.936;2023-12-07T01:06:22;3.70;99.90
15343;DHT22;7771;48.478;8.936;2023-12-07T01:11:18;3.60;99.90
15343;DHT22;7771;48.478;8.936;2023-12-07T01:13:45;3.60;99.90
15343;DHT22;7771;48.478;8.936;2023-12-07T01:16:13;3.60;99.90
15343;DHT22;7771;48.478;8.936;2023-12-07T01:18:40;3.60;99.90
15343;DHT22;7771;48.478;8.936;2023-12-07T01:21:06;3.60;99.90
15343;DHT22;7771;48.478;8.936;2023-12-07T01:23:33;3.60;99.90
15343;DHT22;7771;48.478;8.936;2023-12-07T01:26:02;3.60;99.90
15343;DHT22;7771;48.478;8.936;2023-12-07T01:28:28;3.60;99.90
15343;DHT22;7771;48.478;8.936;2023-12-07T01:30:56;3.60;99.90
15343;DHT22;7771;48.478;8.936;2023-12-07T01:33:24;3.60;99.90
15343;DHT22;7771;48.478;8.936;2023-12-07T01:35:50;3.60;99.90
15343;DHT22;7771;48.478;8.936;2023-12-07T01:38:18;3.60;99.90
15343;DHT22;7771;48.478;8.936;2023-12-07T01:40:45;3.60;99.90
15343;DHT22;7771;48.478;8.936;2023-12-07T01:43:12;3.60;99.90
15343;DHT22;7771;48.478;8.936;2023-12-07T01:48:07;3.70;99.90
15343;DHT22;7771;48.478;8.936;2023-12-07T01:50:34;3.60;99.90
15343;DHT22;7771;48.478;8.936;2023-12-07T01:53:01;3.60;99.90
15343;DHT22;7771;48.478;8.936;2023-12-07T01:57:55;3.60;99.90
15343;DHT22;7771;48.478;8.936;2023-12-07T02:00:22;3.60;99.90
15343;DHT22;7771;48.478;8.936;2023-12-07T02:02:50;3.60;99.90
15343;DHT22;7771;48.478;8.936;2023-12-07T02:07:45;3.60;99.90
15343;DHT22;7771;48.478;8.936;2023-12-07T02:10:12;3.60;99.90
15343;DHT22;7771;48.478;8.936;2023-12-07T02:12:39;3.60;99.90
15343;DHT22;7771;48.478;8.936;2023-12-07T02:15:08;3.50;99.90
15343;DHT22;7771;48.478;8.936;2023-12-07T02:17:40;3.50;99.90
15343;DHT22;7771;48.478;8.936;2023-12-07T02:20:09;3.50;99.90
15343;DHT22;7771;48.478;8.936;2023-12-07T02:22:49;3.50;99.90
15343;DHT22;7771;48.478;8.936;2023-12-07T02:25:15;3.50;99.90
15343;DHT22;7771;48.478;8.936;2023-12-07T02:27:43;3.40;99.90
15343;DHT22;7771;48.478;8.936;2023-12-07T02:30:10;3.40;99.90
15343;DHT22;7771;48.478;8.936;2023-12-07T02:32:37;3.40;99.90
15343;DHT22;7771;48.478;8.936;2023-12-07T02:35:04;3.30;99.90
15343;DHT22;7771;48.478;8.936;2023-12-07T02:37:33;3.30;99.90
15343;DHT22;7771;48.478;8.936;2023-12-07T02:39:59;3.30;99.90
15343;DHT22;7771;48.478;8.936;2023-12-07T02:42:26;3.20;99.90
15343;DHT22;7771;48.478;8.936;2023-12-07T02:44:53;3.20;99.90
15343;DHT22;7771;48.478;8.936;2023-12-07T02:47:20;3.20;99.90
15343;DHT22;7771;48.478;8.936;2023-12-07T02:49:46;3.20;99.90
15343;DHT22;7771;48.478;8.936;2023-12-07T02:52:14;3.20;99.90
15343;DHT22;7771;48.478;8.936;2023-12-07T02:54:40;3.10;99.90
15343;DHT22;7771;48.478;8.936;2023-12-07T02:57:08;3.00;99.90
15343;DHT22;7771;48.478;8.936;2023-12-07T02:59:35;3.00;99.90
15343;DHT22;7771;48.478;8.936;2023-12-07T03:02:02;2.90;99.90
15343;DHT22;7771;48.478;8.936;2023-12-07T03:04:28;2.90;99.90
15343;DHT22;7771;48.478;8.936;2023-12-07T03:06:56;2.90;99.90
15343;DHT22;7771;48.478;8.936;2023-12-07T03:09:24;2.90;99.90
15343;DHT22;7771;48.478;8.936;2023-12-07T03:11:51;2.80;99.90
15343;DHT22;7771;48.478;8.936;2023-12-07T03:14:19;2.80;99.90
15343;DHT22;7771;48.478;8.936;2023-12-07T03:16:46;2.80;99.90
15343;DHT22;7771;48.478;8.936;2023-12-07T03:19:13;2.80;99.90
15343;DHT22;7771;48.478;8.936;2023-12-07T03:21:41;2.80;99.90
15343;DHT22;7771;48.478;8.936;2023-12-07T03:24:09;2.70;99.90
15343;DHT22;7771;48.478;8.936;2023-12-07T03:26:37;2.70;99.90
15343;DHT22;7771;48.478;8.936;2023-12-07T03:29:03;2.70;99.90
15343;DHT22;7771;48.478;8.936;2023-12-07T03:31:30;2.70;99.90
15343;DHT22;7771;48.478;8.936;2023-12-07T03:33:57;2.70;99.90
15343;DHT22;7771;48.478;8.936;2023-12-07T03:36:25;2.60;99.90
15343;DHT22;7771;48.478;8.936;2023-12-07T03:38:51;2.70;99.90
15343;DHT22;7771;48.478;8.936;2023-12-07T03:41:18;2.60;99.90
15343;DHT22;7771;48.478;8.936;2023-12-07T03:43:45;2.60;99.90
15343;DHT22;7771;48.478;8.936;2023-12-07T03:46:13;2.50;99.90
15343;DHT22;7771;48.478;8.936;2023-12-07T03:48:40;2.60;99.90
15343;DHT22;7771;48.478;8.936;2023-12-07T03:51:07;2.50;99.90
15343;DHT22;7771;48.478;8.936;2023-12-07T03:53:34;2.50;99.90
15343;DHT22;7771;48.478;8.936;2023-12-07T03:56:01;2.50;99.90
15343;DHT22;7771;48.478;8.936;2023-12-07T03:58:28;2.40;99.90
15343;DHT22;7771;48.478;8.936;2023-12-07T04:03:23;2.50;99.90
15343;DHT22;7771;48.478;8.936;2023-12-07T04:05:51;2.40;99.90
15343;DHT22;7771;48.478;8.936;2023-12-07T04:08:19;2.30;99.90
15343;DHT22;7771;48.478;8.936;2023-12-07T04:10:47;2.30;99.90
15343;DHT22;7771;48.478;8.936;2023-12-07T04:13:14;2.20;99.90
15343;DHT22;7771;48.478;8.936;2023-12-07T04:15:41;2.20;99.90
15343;DHT22;7771;48.478;8.936;2023-12-07T04:18:08;2.30;99.90
15343;DHT22;7771;48.478;8.936;2023-12-07T04:20:36;2.20;99.90
15343;DHT22;7771;48.478;8.936;2023-12-07T04:23:04;2.20;99.90
15343;DHT22;7771;48.478;8.936;2023-12-07T04:25:30;2.20;99.90
15343;DHT22;7771;48.478;8.936;2023-12-07T04:30:26;2.10;99.90
15343;DHT22;7771;48.478;8.936;2023-12-07T04:35:21;1.90;99.90
15343;DHT22;7771;48.478;8.936;2023-12-07T04:37:48;1.90;99.90
15343;DHT22;7771;48.478;8.936;2023-12-07T04:40:15;1.80;99.90
15343;DHT22;7771;48.478;8.936;2023-12-07T04:42:42;1.80;99.90
15343;DHT22;7771;48.478;8.936;2023-12-07T04:45:09;1.80;99.90
15343;DHT22;7771;48.478;8.936;2023-12-07T04:47:36;1.80;99.90
15343;DHT22;7771;48.478;8.936;2023-12-07T04:50:03;1.80;99.90
15343;DHT22;7771;48.478;8.936;2023-12-07T04:54:59;1.80;99.90
15343;DHT22;7771;48.478;8.936;2023-12-07T04:57:25;1.70;99.90
15343;DHT22;7771;48.478;8.936;2023-12-07T04:59:53;1.70;99.90
15343;DHT22;7771;48.478;8.936;2023-12-07T05:02:19;1.60;99.90
15343;DHT22;7771;48.478;8.936;2023-12-07T05:04:47;1.60;99.90
15343;DHT22;7771;48.478;8.936;2023-12-07T05:07:13;1.50;99.90
15343;DHT22;7771;48.478;8.936;2023-12-07T05:09:41;1.50;99.90
15343;DHT22;7771;48.478;8.936;2023-12-07T05:12:08;1.50;99.90
15343;DHT22;7771;48.478;8.936;2023-12-07T05:14:36;1.40;99.90
15343;DHT22;7771;48.478;8.936;2023-12-07T05:17:04;1.50;99.90
15343;DHT22;7771;48.478;8.936;2023-12-07T05:19:31;1.40;99.90
15343;DHT22;7771;48.478;8.936;2023-12-07T05:21:58;1.40;99.90
15343;DHT22;7771;48.478;8.936;2023-12-07T05:24:25;1.40;99.90
15343;DHT22;7771;48.478;8.936;2023-12-07T05:26:51;1.40;99.90
15343;DHT22;7771;48.478;8.936;2023-12-07T05:29:18;1.30;99.90
15343;DHT22;7771;48.478;8.936;2023-12-07T05:31:48;1.40;99.90
15343;DHT22;7771;48.478;8.936;2023-12-07T05:34:12;1.30;99.90
15343;DHT22;7771;48.478;8.936;2023-12-07T05:39:07;1.20;99.90
15343;DHT22;7771;48.478;8.936;2023-12-07T05:41:33;1.10;99.90
15343;DHT22;7771;48.478;8.936;2023-12-07T05:44:01;1.10;99.90
15343;DHT22;7771;48.478;8.936;2023-12-07T05:46:28;1.10;99.90
15343;DHT22;7771;48.478;8.936;2023-12-07T05:51:23;1.00;99.90
15343;DHT22;7771;48.478;8.936;2023-12-07T05:53:51;0.90;99.90
15343;DHT22;7771;48.478;8.936;2023-12-07T05:56:19;0.90;99.90
15343;DHT22;7771;48.478;8.936;2023-12-07T06:01:17;0.80;99.90
15343;DHT22;7771;48.478;8.936;2023-12-07T06:03:43;0.80;99.90
15343;DHT22;7771;48.478;8.936;2023-12-07T06:06:10;0.80;99.90
15343;DHT22;7771;48.478;8.936;2023-12-07T06:08:37;0.80;99.90
15343;DHT22;7771;48.478;8.936;2023-12-07T06:11:04;0.80;99.90
15343;DHT22;7771;48.478;8.936;2023-12-07T06:13:31;0.80;99.90
15343;DHT22;7771;48.478;8.936;2023-12-07T06:15:59;0.70;99.90
15343;DHT22;7771;48.478;8.936;2023-12-07T06:20:53;0.80;99.90
15343;DHT22;7771;48.478;8.936;2023-12-07T06:23:21;0.70;99.90
15343;DHT22;7771;48.478;8.936;2023-12-07T06:25:49;0.70;99.90
15343;DHT22;7771;48.478;8.936;2023-12-07T06:28:15;0.70;99.90
15343;DHT22;7771;48.478;8.936;2023-12-07T06:30:43;0.60;99.90
15343;DHT22;7771;48.478;8.936;2023-12-07T06:33:09;0.60;99.90
15343;DHT22;7771;48.478;8.936;2023-12-07T06:35:37;0.60;99.90
15343;DHT22;7771;48.478;8.936;2023-12-07T06:38:04;0.60;99.90
15343;DHT22;7771;48.478;8.936;2023-12-07T06:40:32;0.50;99.90
15343;DHT22;7771;48.478;8.936;2023-12-07T06:45:27;0.40;99.90
15343;DHT22;7771;48.478;8.936;2023-12-07T06:47:54;0.50;99.90
15343;DHT22;7771;48.478;8.936;2023-12-07T06:50:21;0.50;99.90
15343;DHT22;7771;48.478;8.936;2023-12-07T06:55:16;0.50;99.90
15343;DHT22;7771;48.478;8.936;2023-12-07T06:57:44;0.50;99.90
15343;DHT22;7771;48.478;8.936;2023-12-07T07:00:10;0.50;99.90
15343;DHT22;7771;48.478;8.936;2023-12-07T07:02:38;0.40;99.90
15343;DHT22;7771;48.478;8.936;2023-12-07T07:05:06;0.40;99.90
15343;DHT22;7771;48.478;8.936;2023-12-07T07:07:34;0.30;99.90
15343;DHT22;7771;48.478;8.936;2023-12-07T07:10:00;0.30;99.90
15343;DHT22;7771;48.478;8.936;2023-12-07T07:12:28;0.30;99.90
15343;DHT22;7771;48.478;8.936;2023-12-07T07:17:22;0.40;99.90
15343;DHT22;7771;48.478;8.936;2023-12-07T07:22:19;0.30;99.90
15343;DHT22;7771;48.478;8.936;2023-12-07T07:24:47;0.30;99.90
15343;DHT22;7771;48.478;8.936;2023-12-07T07:27:13;0.30;99.90
15343;DHT22;7771;48.478;8.936;2023-12-07T07:32:08;0.30;99.90
15343;DHT22;7771;48.478;8.936;2023-12-07T07:34:35;0.40;99.90
15343;DHT22;7771;48.478;8.936;2023-12-07T07:37:03;0.50;99.90
15343;DHT22;7771;48.478;8.936;2023-12-07T07:39:29;0.60;99.90
15343;DHT22;7771;48.478;8.936;2023-12-07T07:44:25;0.50;99.90
15343;DHT22;7771;48.478;8.936;2023-12-07T07:46:53;0.60;99.90
15343;DHT22;7771;48.478;8.936;2023-12-07T07:51:47;0.60;99.90
15343;DHT22;7771;48.478;8.936;2023-12-07T07:56:43;0.60;99.90
15343;DHT22;7771;48.478;8.936;2023-12-07T07:59:10;0.70;99.90
15343;DHT22;7771;48.478;8.936;2023-12-07T08:01:37;0.80;99.90
15343;DHT22;7771;48.478;8.936;2023-12-07T08:04:04;0.80;99.90
15343;DHT22;7771;48.478;8.936;2023-12-07T08:06:31;0.90;99.90
15343;DHT22;7771;48.478;8.936;2023-12-07T08:08:59;0.90;99.90
15343;DHT22;7771;48.478;8.936;2023-12-07T08:13:55;1.10;99.90
15343;DHT22;7771;48.478;8.936;2023-12-07T08:16:23;1.10;99.90
15343;DHT22;7771;48.478;8.936;2023-12-07T08:18:50;1.10;99.90
15343;DHT22;7771;48.478;8.936;2023-12-07T08:21:21;1.20;99.90
15343;DHT22;7771;48.478;8.936;2023-12-07T08:26:16;1.30;99.90
15343;DHT22;7771;48.478;8.936;2023-12-07T08:28:44;1.30;99.90
15343;DHT22;7771;48.478;8.936;2023-12-07T08:31:10;1.40;99.90
15343;DHT22;7771;48.478;8.936;2023-12-07T08:33:38;1.40;99.90
15343;DHT22;7771;48.478;8.936;2023-12-07T08:36:05;1.50;99.90
15343;DHT22;7771;48.478;8.936;2023-12-07T08:38:32;1.50;99.90
15343;DHT22;7771;48.478;8.936;2023-12-07T08:41:00;1.50;99.90
15343;DHT22;7771;48.478;8.936;2023-12-07T08:43:26;1.50;99.90
15343;DHT22;7771;48.478;8.936;2023-12-07T08:45:54;1.40;99.90
15343;DHT22;7771;48.478;8.936;2023-12-07T08:48:21;1.40;99.90
15343;DHT22;7771;48.478;8.936;2023-12-07T08:50:48;1.40;99.90
15343;DHT22;7771;48.478;8.936;2023-12-07T08:53:16;1.40;99.90
15343;DHT22;7771;48.478;8.936;2023-12-07T08:55:43;1.40;99.90
15343;DHT22;7771;48.478;8.936;2023-12-07T08:58:10;1.30;99.90
15343;DHT22;7771;48.478;8.936;2023-12-07T09:00:38;1.40;99.90
15343;DHT22;7771;48.478;8.936;2023-12-07T09:03:05;1.50;99.90
15343;DHT22;7771;48.478;8.936;2023-12-07T09:05:32;1.50;99.90
15343;DHT22;7771;48.478;8.936;2023-12-07T09:10:27;1.60;99.90
15343;DHT22;7771;48.478;8.936;2023-12-07T09:12:56;1.70;99.90
15343;DHT22;7771;48.478;8.936;2023-12-07T09:15:23;1.70;99.90
15343;DHT22;7771;48.478;8.936;2023-12-07T09:17:49;1.80;99.90
15343;DHT22;7771;48.478;8.936;2023-12-07T09:20:17;1.80;99.90
15343;DHT22;7771;48.478;8.936;2023-12-07T09:22:44;1.90;99.90
15343;DHT22;7771;48.478;8.936;2023-12-07T09:25:11;2.00;99.90
15343;DHT22;7771;48.478;8.936;2023-12-07T09:27:39;2.00;99.90
15343;DHT22;7771;48.478;8.936;2023-12-07T09:30:06;2.00;99.90
15343;DHT22;7771;48.478;8.936;2023-12-07T09:32:34;2.10;99.90
15343;DHT22;7771;48.478;8.936;2023-12-07T09:35:02;2.20;99.90
15343;DHT22;7771;48.478;8.936;2023-12-07T09:37:28;2.20;99.90
15343;DHT22;7771;48.478;8.936;2023-12-07T09:39:55;2.30;99.90
15343;DHT22;7771;48.478;8.936;2023-12-07T09:42:22;2.30;99.90
15343;DHT22;7771;48.478;8.936;2023-12-07T09:44:50;2.40;99.90
15343;DHT22;7771;48.478;8.936;2023-12-07T09:47:17;2.50;99.90
15343;DHT22;7771;48.478;8.936;2023-12-07T09:49:44;2.70;99.90
15343;DHT22;7771;48.478;8.936;2023-12-07T09:52:11;2.70;99.90
15343;DHT22;7771;48.478;8.936;2023-12-07T09:54:40;2.70;99.90
15343;DHT22;7771;48.478;8.936;2023-12-07T09:57:08;2.80;99.90
15343;DHT22;7771;48.478;8.936;2023-12-07T09:59:36;2.80;99.90
15343;DHT22;7771;48.478;8.936;2023-12-07T10:02:03;2.80;99.90
15343;DHT22;7771;48.478;8.936;2023-12-07T10:04:30;2.90;99.90
15343;DHT22;7771;48.478;8.936;2023-12-07T10:06:56;2.90;99.90
15343;DHT22;7771;48.478;8.936;2023-12-07T10:09:25;3.00;99.90
15343;DHT22;7771;48.478;8.936;2023-12-07T10:12:01;3.00;99.90
15343;DHT22;7771;48.478;8.936;2023-12-07T10:14:18;3.10;99.90
15343;DHT22;7771;48.478;8.936;2023-12-07T10:16:54;3.20;99.90
15343;DHT22;7771;48.478;8.936;2023-12-07T10:19:23;3.20;99.90
15343;DHT22;7771;48.478;8.936;2023-12-07T10:21:51;3.30;99.90
15343;DHT22;7771;48.478;8.936;2023-12-07T10:24:20;3.40;99.90
15343;DHT22;7771;48.478;8.936;2023-12-07T10:26:47;3.50;99.90
15343;DHT22;7771;48.478;8.936;2023-12-07T10:29:13;3.50;99.90
15343;DHT22;7771;48.478;8.936;2023-12-07T10:31:40;3.60;99.90
15343;DHT22;7771;48.478;8.936;2023-12-07T10:34:09;3.70;99.90
15343;DHT22;7771;48.478;8.936;2023-12-07T10:36:36;3.70;99.90
15343;DHT22;7771;48.478;8.936;2023-12-07T10:39:02;3.80;99.90
15343;DHT22;7771;48.478;8.936;2023-12-07T10:41:31;3.90;99.90
15343;DHT22;7771;48.478;8.936;2023-12-07T10:44:00;4.00;99.90
15343;DHT22;7771;48.478;8.936;2023-12-07T10:46:27;4.10;99.90
15343;DHT22;7771;48.478;8.936;2023-12-07T10:48:55;4.10;99.90
15343;DHT22;7771;48.478;8.936;2023-12-07T10:51:27;4.20;99.90
15343;DHT22;7771;48.478;8.936;2023-12-07T10:53:50;4.30;99.90
15343;DHT22;7771;48.478;8.936;2023-12-07T10:56:21;4.30;99.90
15343;DHT22;7771;48.478;8.936;2023-12-07T10:58:44;4.40;99.90
15343;DHT22;7771;48.478;8.936;2023-12-07T11:03:39;4.40;99.90
15343;DHT22;7771;48.478;8.936;2023-12-07T11:08:40;4.60;99.90
15343;DHT22;7771;48.478;8.936;2023-12-07T11:11:24;4.70;99.90
15343;DHT22;7771;48.478;8.936;2023-12-07T11:13:53;4.80;99.90
15343;DHT22;7771;48.478;8.936;2023-12-07T11:16:32;4.80;99.90
15343;DHT22;7771;48.478;8.936;2023-12-07T11:21:26;5.00;99.90
15343;DHT22;7771;48.478;8.936;2023-12-07T11:23:54;5.00;99.90
15343;DHT22;7771;48.478;8.936;2023-12-07T11:26:23;5.10;99.90
15343;DHT22;7771;48.478;8.936;2023-12-07T11:28:50;5.10;99.90
15343;DHT22;7771;48.478;8.936;2023-12-07T11:31:17;5.20;99.90
15343;DHT22;7771;48.478;8.936;2023-12-07T11:33:44;5.20;99.90
15343;DHT22;7771;48.478;8.936;2023-12-07T11:36:11;5.30;99.90
15343;DHT22;7771;48.478;8.936;2023-12-07T11:41:06;5.50;99.90
15343;DHT22;7771;48.478;8.936;2023-12-07T11:43:36;5.50;99.90
15343;DHT22;7771;48.478;8.936;2023-12-07T11:46:03;5.60;99.90
15343;DHT22;7771;48.478;8.936;2023-12-07T11:48:29;5.50;99.90
15343;DHT22;7771;48.478;8.936;2023-12-07T11:50:58;5.50;99.90
15343;DHT22;7771;48.478;8.936;2023-12-07T11:53:26;5.50;99.90
15343;DHT22;7771;48.478;8.936;2023-12-07T11:55:53;5.50;99.90
15343;DHT22;7771;48.478;8.936;2023-12-07T11:58:19;5.40;99.90
15343;DHT22;7771;48.478;8.936;2023-12-07T12:00:47;5.40;99.90
15343;DHT22;7771;48.478;8.936;2023-12-07T12:03:15;5.40;99.90
15343;DHT22;7771;48.478;8.936;2023-12-07T12:05:43;5.40;99.90
15343;DHT22;7771;48.478;8.936;2023-12-07T12:08:09;5.50;99.90
15343;DHT22;7771;48.478;8.936;2023-12-07T12:13:05;5.60;99.90
15343;DHT22;7771;48.478;8.936;2023-12-07T12:15:32;5.70;99.90
15343;DHT22;7771;48.478;8.936;2023-12-07T12:17:59;5.70;99.90
15343;DHT22;7771;48.478;8.936;2023-12-07T12:20:26;5.80;99.90
15343;DHT22;7771;48.478;8.936;2023-12-07T12:22:53;5.80;99.90
15343;DHT22;7771;48.478;8.936;2023-12-07T12:25:23;5.80;99.90
15343;DHT22;7771;48.478;8.936;2023-12-07T12:27:49;5.80;99.90
15343;DHT22;7771;48.478;8.936;2023-12-07T12:30:16;5.80;99.90
15343;DHT22;7771;48.478;8.936;2023-12-07T12:32:44;5.90;99.90
15343;DHT22;7771;48.478;8.936;2023-12-07T12:35:13;5.80;99.90
15343;DHT22;7771;48.478;8.936;2023-12-07T12:37:41;5.80;99.90
15343;DHT22;7771;48.478;8.936;2023-12-07T12:40:06;5.70;99.90
15343;DHT22;7771;48.478;8.936;2023-12-07T12:42:34;5.70;99.90
15343;DHT22;7771;48.478;8.936;2023-12-07T12:45:00;5.80;99.90
15343;DHT22;7771;48.478;8.936;2023-12-07T12:47:28;5.80;99.90
15343;DHT22;7771;48.478;8.936;2023-12-07T12:49:56;5.70;99.90
15343;DHT22;7771;48.478;8.936;2023-12-07T12:52:23;5.70;99.90
15343;DHT22;7771;48.478;8.936;2023-12-07T12:54:50;5.70;99.90
15343;DHT22;7771;48.478;8.936;2023-12-07T12:57:17;5.80;99.90
15343;DHT22;7771;48.478;8.936;2023-12-07T12:59:45;5.70;99.90
15343;DHT22;7771;48.478;8.936;2023-12-07T13:02:12;5.70;99.90
15343;DHT22;7771;48.478;8.936;2023-12-07T13:04:39;5.70;99.90
15343;DHT22;7771;48.478;8.936;2023-12-07T13:07:06;5.80;99.90
15343;DHT22;7771;48.478;8.936;2023-12-07T13:09:33;5.70;99.90
15343;DHT22;7771;48.478;8.936;2023-12-07T13:12:00;5.70;99.90
15343;DHT22;7771;48.478;8.936;2023-12-07T13:14:27;5.60;99.90
15343;DHT22;7771;48.478;8.936;2023-12-07T13:16:54;5.60;99.90
15343;DHT22;7771;48.478;8.936;2023-12-07T13:19:21;5.50;99.90
15343;DHT22;7771;48.478;8.936;2023-12-07T13:21:49;5.50;99.90
15343;DHT22;7771;48.478;8.936;2023-12-07T13:24:15;5.50;99.90
15343;DHT22;7771;48.478;8.936;2023-12-07T13:26:43;5.60;99.90
15343;DHT22;7771;48.478;8.936;2023-12-07T13:29:11;5.60;99.90
15343;DHT22;7771;48.478;8.936;2023-12-07T13:31:37;5.50;99.90
15343;DHT22;7771;48.478;8.936;2023-12-07T13:34:04;5.60;99.90
15343;DHT22;7771;48.478;8.936;2023-12-07T13:36:31;5.60;99.90
15343;DHT22;7771;48.478;8.936;2023-12-07T13:38:58;5.60;99.90
15343;DHT22;7771;48.478;8.936;2023-12-07T13:41:25;5.70;99.90
15343;DHT22;7771;48.478;8.936;2023-12-07T13:43:52;5.70;99.90
15343;DHT22;7771;48.478;8.936;2023-12-07T13:48:47;5.80;99.90
15343;DHT22;7771;48.478;8.936;2023-12-07T13:51:14;5.80;99.90
15343;DHT22;7771;48.478;8.936;2023-12-07T13:53:41;5.80;99.90
15343;DHT22;7771;48.478;8.936;2023-12-07T13:56:09;5.80;99.90
15343;DHT22;7771;48.478;8.936;2023-12-07T13:58:36;5.80;99.90
15343;DHT22;7771;48.478;8.936;2023-12-07T14:01:02;5.80;99.90
15343;DHT22;7771;48.478;8.936;2023-12-07T14:03:29;5.80;99.90
15343;DHT22;7771;48.478;8.936;2023-12-07T14:05:56;5.80;99.90
15343;DHT22;7771;48.478;8.936;2023-12-07T14:08:23;5.80;99.90
15343;DHT22;7771;48.478;8.936;2023-12-07T14:10:51;5.80;99.90
15343;DHT22;7771;48.478;8.936;2023-12-07T14:13:18;5.80;99.90
15343;DHT22;7771;48.478;8.936;2023-12-07T14:15:46;5.80;99.90
15343;DHT22;7771;48.478;8.936;2023-12-07T14:18:12;5.80;99.90
15343;DHT22;7771;48.478;8.936;2023-12-07T14:23:09;5.70;99.90
15343;DHT22;7771;48.478;8.936;2023-12-07T14:25:36;5.70;99.90
15343;DHT22;7771;48.478;8.936;2023-12-07T14:28:03;5.60;99.90
15343;DHT22;7771;48.478;8.936;2023-12-07T14:30:30;5.60;99.90
15343;DHT22;7771;48.478;8.936;2023-12-07T14:32:57;5.50;99.90
15343;DHT22;7771;48.478;8.936;2023-12-07T14:35:23;5.50;99.90
15343;DHT22;7771;48.478;8.936;2023-12-07T14:37:51;5.50;99.90
15343;DHT22;7771;48.478;8.936;2023-12-07T14:40:18;5.50;99.90
15343;DHT22;7771;48.478;8.936;2023-12-07T14:42:45;5.40;99.90
15343;DHT22;7771;48.478;8.936;2023-12-07T14:45:13;5.40;99.90
15343;DHT22;7771;48.478;8.936;2023-12-07T14:47:39;5.30;99.90
15343;DHT22;7771;48.478;8.936;2023-12-07T14:50:07;5.30;99.90
15343;DHT22;7771;48.478;8.936;2023-12-07T14:52:35;5.30;99.90
15343;DHT22;7771;48.478;8.936;2023-12-07T14:55:03;5.20;99.90
15343;DHT22;7771;48.478;8.936;2023-12-07T14:57:30;5.20;99.90
15343;DHT22;7771;48.478;8.936;2023-12-07T14:59:57;5.20;99.90
15343;DHT22;7771;48.478;8.936;2023-12-07T15:02:25;5.20;99.90
15343;DHT22;7771;48.478;8.936;2023-12-07T15:04:52;5.20;99.90
15343;DHT22;7771;48.478;8.936;2023-12-07T15:07:19;5.10;99.90
15343;DHT22;7771;48.478;8.936;2023-12-07T15:09:47;5.10;99.90
15343;DHT22;7771;48.478;8.936;2023-12-07T15:12:14;5.10;99.90
15343;DHT22;7771;48.478;8.936;2023-12-07T15:14:41;5.10;99.90
15343;DHT22;7771;48.478;8.936;2023-12-07T15:17:08;5.00;99.90
15343;DHT22;7771;48.478;8.936;2023-12-07T15:19:36;5.00;99.90
15343;DHT22;7771;48.478;8.936;2023-12-07T15:22:02;5.00;99.90
15343;DHT22;7771;48.478;8.936;2023-12-07T15:24:31;4.90;99.90
15343;DHT22;7771;48.478;8.936;2023-12-07T15:26:58;4.90;99.90
15343;DHT22;7771;48.478;8.936;2023-12-07T15:29:26;4.90;99.90
15343;DHT22;7771;48.478;8.936;2023-12-07T15:34:22;4.80;99.90
15343;DHT22;7771;48.478;8.936;2023-12-07T15:36:49;4.70;99.90
15343;DHT22;7771;48.478;8.936;2023-12-07T15:39:16;4.70;99.90
15343;DHT22;7771;48.478;8.936;2023-12-07T15:41:43;4.60;99.90
15343;DHT22;7771;48.478;8.936;2023-12-07T15:44:10;4.50;99.90
15343;DHT22;7771;48.478;8.936;2023-12-07T15:46:37;4.40;99.90
15343;DHT22;7771;48.478;8.936;2023-12-07T15:49:04;4.40;99.90
15343;DHT22;7771;48.478;8.936;2023-12-07T15:51:31;4.40;99.90
15343;DHT22;7771;48.478;8.936;2023-12-07T15:53:58;4.30;99.90
15343;DHT22;7771;48.478;8.936;2023-12-07T15:56:25;4.20;99.90
15343;DHT22;7771;48.478;8.936;2023-12-07T15:58:53;4.20;99.90
15343;DHT22;7771;48.478;8.936;2023-12-07T16:01:21;4.20;99.90
15343;DHT22;7771;48.478;8.936;2023-12-07T16:03:50;4.10;99.90
15343;DHT22;7771;48.478;8.936;2023-12-07T16:06:19;4.10;99.90
15343;DHT22;7771;48.478;8.936;2023-12-07T16:11:13;4.00;99.90
15343;DHT22;7771;48.478;8.936;2023-12-07T16:13:41;4.00;99.90
15343;DHT22;7771;48.478;8.936;2023-12-07T16:16:07;4.00;99.90
15343;DHT22;7771;48.478;8.936;2023-12-07T16:18:35;3.90;99.90
15343;DHT22;7771;48.478;8.936;2023-12-07T16:21:04;3.90;99.90
15343;DHT22;7771;48.478;8.936;2023-12-07T16:23:31;3.80;99.90
15343;DHT22;7771;48.478;8.936;2023-12-07T16:25:58;3.80;99.90
15343;DHT22;7771;48.478;8.936;2023-12-07T16:28:25;3.70;99.90
15343;DHT22;7771;48.478;8.936;2023-12-07T16:30:52;3.70;99.90
15343;DHT22;7771;48.478;8.936;2023-12-07T16:33:19;3.60;99.90
15343;DHT22;7771;48.478;8.936;2023-12-07T16:35:46;3.60;99.90
15343;DHT22;7771;48.478;8.936;2023-12-07T16:38:12;3.50;99.90
15343;DHT22;7771;48.478;8.936;2023-12-07T16:40:39;3.50;99.90
15343;DHT22;7771;48.478;8.936;2023-12-07T16:43:06;3.50;99.90
15343;DHT22;7771;48.478;8.936;2023-12-07T16:45:34;3.40;99.90
15343;DHT22;7771;48.478;8.936;2023-12-07T16:48:02;3.50;99.90
15343;DHT22;7771;48.478;8.936;2023-12-07T16:50:29;3.50;99.90
15343;DHT22;7771;48.478;8.936;2023-12-07T16:52:56;3.50;99.90
15343;DHT22;7771;48.478;8.936;2023-12-07T16:55:24;3.50;99.90
15343;DHT22;7771;48.478;8.936;2023-12-07T16:57:50;3.40;99.90
15343;DHT22;7771;48.478;8.936;2023-12-07T17:00:18;3.40;99.90
15343;DHT22;7771;48.478;8.936;2023-12-07T17:05:14;3.40;99.90
15343;DHT22;7771;48.478;8.936;2023-12-07T17:07:42;3.40;99.90
15343;DHT22;7771;48.478;8.936;2023-12-07T17:10:09;3.30;99.90
15343;DHT22;7771;48.478;8.936;2023-12-07T17:15:05;3.20;99.90
15343;DHT22;7771;48.478;8.936;2023-12-07T17:17:32;3.20;99.90
15343;DHT22;7771;48.478;8.936;2023-12-07T17:19:59;3.20;99.90
15343;DHT22;7771;48.478;8.936;2023-12-07T17:22:26;3.20;99.90
15343;DHT22;7771;48.478;8.936;2023-12-07T17:24:53;3.20;99.90
15343;DHT22;7771;48.478;8.936;2023-12-07T17:27:21;3.10;99.90